createdAt,value
2018-04-19T00:01:27.348Z,13.10
2018-04-19T00:03:56.416Z,13.00
2018-04-19T00:06:24.672Z,13.00
2018-04-19T00:08:52.990Z,13.00
2018-04-19T00:11:21.245Z,12.90
2018-04-19T00:13:49.522Z,12.70
2018-04-19T00:16:17.902Z,12.60
2018-04-19T00:18:46.174Z,12.60
2018-04-19T00:21:14.435Z,12.60
2018-04-19T00:23:42.751Z,12.50
2018-04-19T00:26:11.010Z,12.40
2018-04-19T00:28:39.307Z,12.50
2018-04-19T00:31:07.557Z,12.50
2018-04-19T00:33:35.829Z,12.30
2018-04-19T00:36:04.822Z,12.10
2018-04-19T00:38:33.366Z,12.10
2018-04-19T00:41:01.666Z,12.10
2018-04-19T00:43:29.889Z,12.10
2018-04-19T00:45:58.319Z,12.00
2018-04-19T00:48:26.587Z,11.90
2018-04-19T00:50:54.891Z,11.80
2018-04-19T00:53:23.207Z,11.80
2018-04-19T00:55:51.494Z,11.80
2018-04-19T00:58:19.763Z,11.80
2018-04-19T01:00:48.987Z,11.50
2018-04-19T01:03:17.225Z,11.50
2018-04-19T01:05:46.402Z,11.40
2018-04-19T01:08:15.453Z,11.40
2018-04-19T01:10:43.770Z,11.30
2018-04-19T01:13:12.076Z,11.40
2018-04-19T01:15:40.395Z,11.40
2018-04-19T01:18:08.699Z,11.40
2018-04-19T01:20:36.979Z,11.30
2018-04-19T01:23:05.253Z,11.20
2018-04-19T01:25:33.535Z,11.20
2018-04-19T01:28:01.819Z,11.20
2018-04-19T01:30:30.299Z,11.30
2018-04-19T01:32:58.803Z,11.30
2018-04-19T01:35:38.958Z,11.30
2018-04-19T01:56:10.687Z,11.20
2018-04-19T02:16:50.431Z,10.30
2018-04-19T02:19:18.727Z,10.30
2018-04-19T02:21:47.729Z,10.30
2018-04-19T02:24:16.037Z,10.20
2018-04-19T02:26:44.314Z,10.20
2018-04-19T02:29:12.578Z,10.30
2018-04-19T02:31:40.857Z,10.30
2018-04-19T02:34:09.340Z,10.30
2018-04-19T02:36:37.609Z,10.30
2018-04-19T02:39:06.655Z,10.40
2018-04-19T02:41:34.898Z,10.40
2018-04-19T02:44:03.216Z,10.50
2018-04-19T02:46:31.562Z,10.60
2018-04-19T02:48:59.914Z,10.60
2018-04-19T02:51:28.925Z,10.60
2018-04-19T02:53:58.015Z,10.60
2018-04-19T02:56:27.103Z,10.50
2018-04-19T02:58:56.836Z,10.40
2018-04-19T03:01:25.114Z,10.30
2018-04-19T03:03:54.133Z,10.30
2018-04-19T03:06:22.408Z,10.30
2018-04-19T03:08:50.706Z,10.30
2018-04-19T03:11:18.978Z,10.30
2018-04-19T03:13:47.315Z,10.30
2018-04-19T03:16:15.622Z,10.00
2018-04-19T03:18:44.655Z,9.90
2018-04-19T03:21:12.895Z,9.90
2018-04-19T03:23:41.984Z,9.30
2018-04-19T03:26:10.222Z,9.30
2018-04-19T03:28:38.460Z,9.10
2018-04-19T03:31:07.108Z,9.00
2018-04-19T03:33:35.428Z,9.00
2018-04-19T03:36:03.710Z,8.90
2018-04-19T03:38:32.766Z,8.90
2018-04-19T03:41:01.063Z,8.90
2018-04-19T03:43:30.866Z,9.00
2018-04-19T03:45:59.380Z,8.90
2018-04-19T03:48:27.638Z,9.10
2018-04-19T03:50:55.878Z,9.10
2018-04-19T03:53:24.317Z,9.10
2018-04-19T03:55:52.573Z,9.00
2018-04-19T03:58:20.813Z,9.10
2018-04-19T04:00:49.192Z,9.10
2018-04-19T04:03:17.563Z,9.10
2018-04-19T04:05:46.549Z,9.10
2018-04-19T04:08:15.630Z,9.10
2018-04-19T04:10:43.906Z,9.10
2018-04-19T04:13:12.171Z,9.10
2018-04-19T04:33:46.063Z,9.20
2018-04-19T04:36:14.877Z,9.30
2018-04-19T04:38:43.155Z,9.30
2018-04-19T04:41:11.534Z,9.20
2018-04-19T04:43:39.808Z,9.30
2018-04-19T04:46:08.106Z,9.20
2018-04-19T04:48:36.598Z,9.20
2018-04-19T04:51:04.891Z,9.20
2018-04-19T04:53:33.160Z,9.20
2018-04-19T04:56:01.517Z,9.20
2018-04-19T05:16:35.702Z,9.40
2018-04-19T05:19:04.092Z,9.40
2018-04-19T05:21:32.447Z,9.40
2018-04-19T05:24:00.718Z,9.50
2018-04-19T05:26:29.011Z,9.50
2018-04-19T05:28:57.249Z,9.50
2018-04-19T05:31:25.525Z,9.50
2018-04-19T05:51:59.568Z,9.60
2018-04-19T05:54:27.890Z,9.50
2018-04-19T05:56:56.118Z,9.70
2018-04-19T05:59:24.403Z,9.80
2018-04-19T06:01:52.706Z,9.90
2018-04-19T06:04:20.965Z,9.90
2018-04-19T06:06:49.537Z,10.00
2018-04-19T06:09:17.828Z,10.10
2018-04-19T06:11:46.116Z,10.20
2018-04-19T06:14:14.767Z,10.30
2018-04-19T06:16:43.046Z,10.10
2018-04-19T06:19:11.333Z,10.10
2018-04-19T06:21:40.432Z,10.20
2018-04-19T06:24:09.470Z,10.30
2018-04-19T06:26:37.719Z,10.20
2018-04-19T06:29:06.162Z,10.40
2018-04-19T06:31:34.439Z,10.50
2018-04-19T06:34:02.749Z,10.60
2018-04-19T06:36:31.037Z,10.70
2018-04-19T06:39:00.326Z,11.10
2018-04-19T06:41:28.567Z,11.10
2018-04-19T06:43:56.874Z,11.20
2018-04-19T06:46:25.124Z,11.40
2018-04-19T06:48:53.427Z,11.50
2018-04-19T06:51:21.925Z,11.60
2018-04-19T07:11:56.024Z,12.20
2018-04-19T07:14:24.325Z,12.30
2018-04-19T07:16:52.564Z,12.40
2018-04-19T07:19:20.892Z,12.50
2018-04-19T07:21:49.199Z,12.60
2018-04-19T07:24:17.504Z,12.60
2018-04-19T07:26:46.502Z,12.80
2018-04-19T07:29:15.073Z,12.80
2018-04-19T07:31:44.131Z,13.00
2018-04-19T07:34:12.524Z,12.90
2018-04-19T07:36:40.794Z,13.00
2018-04-19T07:39:09.443Z,13.00
2018-04-19T07:41:37.718Z,13.10
2018-04-19T07:44:06.024Z,13.10
2018-04-19T07:46:34.343Z,13.30
2018-04-19T07:49:02.643Z,13.40
2018-04-19T07:51:31.745Z,13.50
2018-04-19T07:53:59.993Z,13.50
2018-04-19T07:56:28.286Z,13.60
2018-04-19T07:58:56.764Z,13.70
2018-04-19T08:01:25.005Z,13.70
2018-04-19T08:03:53.316Z,13.70
2018-04-19T08:06:21.801Z,13.80
2018-04-19T08:08:50.183Z,13.90
2018-04-19T08:11:18.453Z,14.00
2018-04-19T08:13:46.730Z,14.10
2018-04-19T08:16:15.006Z,14.20
2018-04-19T08:18:43.281Z,14.30
2018-04-19T08:21:11.810Z,14.40
2018-04-19T08:23:40.078Z,14.50
2018-04-19T08:26:09.101Z,14.70
2018-04-19T08:28:38.192Z,14.80
2018-04-19T08:31:06.458Z,14.70
2018-04-19T08:33:34.736Z,14.80
2018-04-19T08:36:03.009Z,14.90
2018-04-19T08:38:32.118Z,15.00
2018-04-19T08:41:00.438Z,15.00
2018-04-19T08:43:28.759Z,15.10
2018-04-19T08:45:57.026Z,15.20
2018-04-19T08:48:25.275Z,15.20
2018-04-19T08:50:53.810Z,15.40
2018-04-19T08:53:22.090Z,15.40
2018-04-19T08:55:50.353Z,15.50
2018-04-19T08:58:18.795Z,15.50
2018-04-19T09:00:47.026Z,15.70
2018-04-19T09:03:15.314Z,15.80
2018-04-19T09:05:43.850Z,15.90
2018-04-19T09:08:12.086Z,15.90
2018-04-19T09:10:40.329Z,16.00
2018-04-19T09:13:08.623Z,16.10
2018-04-19T09:15:37.441Z,16.20
2018-04-19T09:18:05.668Z,16.30
2018-04-19T09:20:34.102Z,16.30
2018-04-19T09:23:02.400Z,16.40
2018-04-19T09:25:30.663Z,16.50
2018-04-19T09:27:58.909Z,16.60
2018-04-19T09:30:27.177Z,16.60
2018-04-19T09:32:55.467Z,16.70
2018-04-19T09:53:28.165Z,17.10
2018-04-19T09:55:56.442Z,17.10
2018-04-19T10:16:28.589Z,18.10
2018-04-19T10:18:56.967Z,18.20
2018-04-19T10:21:25.332Z,18.40
2018-04-19T10:23:54.448Z,18.60
2018-04-19T10:26:22.731Z,18.60
2018-04-19T10:28:50.957Z,18.70
2018-04-19T10:31:19.603Z,18.80
2018-04-19T10:33:47.851Z,18.80
2018-04-19T10:54:21.991Z,19.40
2018-04-19T10:56:50.296Z,19.40
2018-04-19T10:59:18.562Z,19.50
2018-04-19T11:01:47.093Z,19.60
2018-04-19T11:04:16.148Z,19.80
2018-04-19T11:06:44.408Z,19.80
2018-04-19T11:09:12.910Z,19.90
2018-04-19T11:11:41.221Z,19.90
2018-04-19T11:14:10.990Z,20.20
2018-04-19T11:16:39.356Z,20.10
2018-04-19T11:37:11.684Z,21.20
2018-04-19T11:39:40.270Z,21.10
2018-04-19T11:42:09.575Z,21.40
2018-04-19T11:44:37.866Z,21.40
2018-04-19T12:05:09.956Z,22.30
2018-04-19T12:07:38.196Z,22.50
2018-04-19T12:10:06.478Z,22.70
2018-04-19T12:12:34.990Z,22.80
2018-04-19T12:15:03.262Z,23.10
2018-04-19T12:17:31.501Z,23.30
2018-04-19T12:19:59.808Z,23.50
2018-04-19T12:22:28.103Z,23.80
2018-04-19T12:24:56.332Z,24.00
2018-04-19T12:27:25.730Z,24.40
2018-04-19T12:29:54.020Z,24.40
2018-04-19T12:32:23.083Z,24.80
2018-04-19T12:34:51.529Z,24.80
2018-04-19T12:55:25.114Z,25.30
2018-04-19T12:57:54.320Z,25.30
2018-04-19T13:00:22.577Z,25.30
2018-04-19T13:02:50.858Z,24.90
2018-04-19T13:05:19.402Z,24.60
2018-04-19T13:07:47.648Z,24.40
2018-04-19T13:10:16.719Z,24.20
2018-04-19T13:12:45.189Z,24.10
2018-04-19T13:33:18.745Z,27.20
2018-04-19T13:35:47.068Z,28.20
2018-04-19T13:38:15.297Z,28.90
2018-04-19T13:40:43.658Z,29.70
2018-04-19T13:43:12.113Z,30.00
2018-04-19T13:45:40.390Z,30.60
2018-04-19T13:48:09.143Z,31.20
2018-04-19T13:50:38.319Z,31.70
2018-04-19T13:53:06.632Z,31.70
2018-04-19T13:55:34.865Z,32.00
2018-04-19T13:58:03.392Z,32.50
2018-04-19T14:00:31.646Z,32.70
2018-04-19T14:02:59.914Z,32.70
2018-04-19T14:05:28.181Z,32.80
2018-04-19T14:07:56.465Z,32.90
2018-04-19T14:10:24.873Z,33.10
2018-04-19T14:12:53.187Z,33.40
2018-04-19T14:15:22.222Z,33.20
2018-04-19T14:17:50.485Z,33.20
2018-04-19T14:20:18.908Z,33.20
2018-04-19T14:22:47.149Z,33.70
2018-04-19T14:43:20.408Z,34.40
2018-04-19T14:45:48.696Z,34.70
2018-04-19T14:48:17.060Z,34.60
2018-04-19T14:50:45.524Z,35.00
2018-04-19T14:53:13.806Z,35.20
2018-04-19T14:55:42.148Z,34.60
2018-04-19T14:58:11.206Z,34.00
2018-04-19T15:00:39.514Z,34.00
2018-04-19T15:03:07.801Z,34.10
2018-04-19T15:05:36.081Z,34.10
2018-04-19T15:08:04.317Z,34.60
2018-04-19T15:10:32.553Z,35.20
2018-04-19T15:31:06.652Z,33.70
2018-04-19T15:51:39.466Z,32.50
2018-04-19T16:12:11.794Z,32.70
2018-04-19T16:32:43.652Z,29.60
2018-04-19T16:53:17.354Z,27.20
2018-04-19T17:13:48.710Z,24.50
2018-04-19T17:16:17.066Z,24.30
2018-04-19T17:18:45.300Z,24.20
2018-04-19T17:21:13.582Z,24.00
2018-04-19T17:23:43.420Z,23.80
2018-04-19T17:26:11.732Z,23.80
2018-04-19T17:46:46.137Z,23.10
2018-04-19T17:49:14.516Z,22.90
2018-04-19T17:51:42.737Z,22.70
2018-04-19T17:54:11.267Z,22.60
2018-04-19T18:14:44.747Z,21.80
2018-04-19T18:17:13.098Z,21.70
2018-04-19T18:19:42.140Z,21.50
2018-04-19T18:22:10.414Z,21.40
2018-04-19T18:42:43.594Z,20.20
2018-04-19T18:45:12.648Z,19.90
2018-04-19T18:47:40.939Z,19.90
2018-04-19T18:50:09.378Z,19.80
2018-04-19T18:52:37.795Z,19.60
2018-04-19T18:55:06.054Z,19.50
2018-04-19T19:19:00.065Z,18.80
2018-04-19T19:21:28.559Z,18.80
2018-04-19T19:23:56.808Z,18.80
2018-04-19T19:26:25.086Z,18.70
2018-04-19T19:28:53.589Z,18.70
2018-04-19T19:31:21.825Z,18.70
2018-04-19T19:33:50.110Z,18.60
2018-04-19T19:36:19.199Z,18.50
2018-04-19T19:56:51.657Z,17.90
2018-04-19T19:59:20.039Z,17.70
2018-04-19T20:19:51.978Z,16.90
2018-04-19T20:22:20.569Z,16.90
2018-04-19T20:24:48.805Z,16.90
2018-04-19T20:27:17.111Z,16.80
2018-04-19T20:29:46.307Z,16.80
2018-04-19T20:32:15.366Z,16.80
2018-04-19T20:34:43.653Z,16.70
2018-04-19T20:37:12.130Z,16.70
2018-04-19T20:39:40.362Z,16.60
2018-04-19T20:42:08.638Z,16.40
2018-04-19T20:44:37.213Z,16.30
2018-04-19T20:47:05.503Z,16.30
2018-04-19T20:49:34.521Z,16.10
2018-04-19T20:52:03.144Z,16.10
2018-04-19T20:54:31.410Z,16.00
2018-04-19T20:56:59.674Z,15.90
2018-04-19T20:59:27.920Z,15.80
2018-04-19T21:01:56.991Z,15.70
2018-04-19T21:04:25.282Z,15.70
2018-04-19T21:06:54.333Z,15.60
2018-04-19T21:09:22.576Z,15.60
2018-04-19T21:11:51.652Z,15.60
2018-04-19T21:14:19.905Z,15.50
2018-04-19T21:16:48.141Z,15.50
2018-04-19T21:19:17.177Z,15.50
2018-04-19T21:21:45.605Z,15.50
2018-04-19T21:24:13.871Z,15.50
2018-04-19T21:26:42.129Z,15.50
2018-04-19T21:29:10.661Z,15.50
2018-04-19T21:31:38.951Z,15.50
2018-04-19T21:34:07.940Z,15.30
2018-04-19T21:36:37.007Z,15.30
2018-04-19T21:39:06.154Z,15.30
2018-04-19T21:41:34.422Z,15.30
2018-04-19T21:44:03.474Z,15.30
2018-04-19T21:46:31.738Z,15.20
2018-04-19T21:48:59.995Z,15.20
2018-04-19T21:51:28.260Z,15.20
2018-04-19T21:53:56.545Z,15.10
2018-04-19T21:56:26.406Z,14.90
2018-04-19T21:58:54.873Z,14.90
2018-04-19T22:01:23.179Z,14.80
2018-04-19T22:03:51.968Z,14.80
2018-04-19T22:06:20.590Z,14.70
2018-04-19T22:08:48.844Z,14.70
2018-04-19T22:11:17.159Z,14.70
2018-04-19T22:13:45.417Z,14.70
2018-04-19T22:16:13.694Z,14.70
2018-04-19T22:18:41.983Z,14.70
2018-04-19T22:21:10.694Z,14.70
2018-04-19T22:23:38.959Z,14.70
2018-04-19T22:26:07.249Z,14.60
2018-04-19T22:28:35.529Z,14.60
2018-04-19T22:31:04.561Z,14.60
2018-04-19T22:33:32.867Z,14.50
2018-04-19T22:36:01.430Z,14.50
2018-04-19T22:38:29.705Z,14.50
2018-04-19T22:40:57.933Z,14.40
2018-04-19T22:43:26.606Z,14.40
2018-04-19T22:45:54.881Z,14.40
2018-04-19T22:48:23.141Z,14.30
2018-04-19T22:50:51.637Z,14.30
2018-04-19T22:53:19.976Z,14.30
2018-04-19T22:55:48.202Z,14.20
2018-04-19T22:58:16.811Z,14.20
2018-04-19T23:00:45.091Z,14.10
2018-04-19T23:03:13.321Z,14.10
2018-04-19T23:05:41.854Z,14.10
2018-04-19T23:08:10.161Z,14.10
2018-04-19T23:10:38.464Z,13.90
2018-04-19T23:13:07.487Z,13.70
2018-04-19T23:15:35.751Z,13.70
2018-04-19T23:18:04.022Z,13.60
2018-04-19T23:20:32.417Z,13.50
2018-04-19T23:23:00.690Z,13.40
2018-04-19T23:25:28.950Z,13.40
2018-04-19T23:27:57.593Z,13.40
2018-04-19T23:30:25.819Z,13.40
2018-04-19T23:32:54.891Z,13.40
2018-04-19T23:35:23.300Z,13.40
2018-04-19T23:37:52.338Z,13.40
2018-04-19T23:40:20.579Z,13.40
2018-04-19T23:42:49.793Z,13.30
2018-04-19T23:45:18.104Z,13.30
2018-04-19T23:47:46.380Z,13.30
2018-04-19T23:50:14.708Z,13.30
2018-04-19T23:52:43.007Z,13.30
2018-04-19T23:55:11.236Z,13.30
2018-04-19T23:57:39.732Z,13.40
